A40 weather

Cape Simpson
Alaska, United States

Public forecast

Using degrees Fahrenheit for public forecast. Weather courtesy of forecast.io.

Closest aviation weather report (METAR) to Cape Simpson

Closest report is Wiley Post Will Rogers Memorial Airport, 41.6 nm (77.1 km) WNW. Retrieved 2019/12/07 17:53 UTC (44 minutes ago):

PABR 071753Z 09013KT 3SM BR BKN011 OVC019 M13/M16 A2984

Closest aviation forecast (TAF) to Cape Simpson

Closest forecast is Wiley Post Will Rogers Memorial Airport, 41.6 nm (77.1 km) WNW. Retrieved 2019/12/07 18:27 UTC (10 minutes ago):

TAF PABR 071723Z 0718/0818 09013KT 3SM -SN BR OVC011 FM080000 08015KT 2SM -SN BR OVC010 FM080900 07023KT 3/4SM BLSN BKN007